Airfield :
LOGIN :

Register | Disclaimer

   EN    FR    IT 

 










Legend :    VFR   Marginal VFR   IFR   Intensive IFR   Very Intensive IFR
Visi :
Ceiling :
>= 8 km
>= 3000ft
5 to 8 km
1000 to 3000 ft
1500m to 5 km
500 to 1000 ft
800 to 1500m
200 to 500 ft
< 800m
< 200 ft
Symbols :   Thunderstorms  Fog  Heavy snow  Heavy precipitations  Wind > 20 kt
SIGMETs :     Misc.  Thunderstorms  Icing  Turbulence  Mountain Waves  Volcanic Ashes






- Airport Elevation : 375 ft
- IATA code : MST


EHBK - Maastricht Aachen

CURRENT METAR :
  • 271655Z AUTO 33008KT 300V360 1000 R03/1500U -SN OVC001 00/00 Q0998 TEMPO 2000 OVC004

EXPIRED METARs :
  • 271625Z AUTO 34010KT 310V010 0700 R03/1200D -SN VV001 00/00 Q0997 TEMPO 4000 BKN004
  • 271555Z AUTO 01008KT 5000 -SNRA FEW003 SCT004 BKN007 01/01 Q0995 TEMPO 2000 SN
  • 271525Z AUTO 05009KT 7000 -SN FEW008 OVC018 01/00 Q0994 BECMG 03013KT TEMPO 4000 BKN006
  • 271455Z AUTO 05010KT 020V080 5000 -SN FEW003 SCT005 BKN006 01/00 Q0993 BECMG 03013KT TEMPO 1200 BKN002
  • 271425Z AUTO 06012KT 2500 -SN FEW003 SCT004 BKN006 01/00 Q0992 RESN BECMG 03013KT TEMPO 1200 BKN002

TAF COR TAF EHBK
Valid from the 27 at 12:00 until the 28 at 18:00 UTC


271128Z 2712/2818 09010KT 7000 RA -RASN BKN030
BECMG 2712/2715 05010KT 2000 RASN BKN006
BECMG 2714/2717 33010KT
PROB40
TEMPO 2714/2719 0800 SNRA SN VV002
BECMG 2717/2720 29011KT
PROB40
TEMPO 2719/2721 30015G25KT 1500 SHSNRA BKN003 SCT015CB
BECMG 2720/2723 26010KT 9999 NSW SCT035
BECMG 2800/2803 23008KT
BECMG 2807/2810 21012KT
BECMG 2815/2818 18017KT



MET'MAP, your aeronautical weather chart ! - Copyright ORBIFLY December 2007 - Disclaimer

ORBIFLY MET'MAP TEAM :

Programming & Development : Alexandra Zaïnal
Concept & original design : Baudouin d'Aumeries
Assistance for programming : Marc-Olivier Méhu
Technical & hardware support : Manuel Goepfert

Contact : metmap@orbifly.com




SOURCES & CREDITS :

   NOAA